sensor_id;sensor_type;location;lat;lon;timestamp;temperature;humidity
25138;DHT22;13112;50.986;4.354;2022-08-23T00:01:43;20.10;99.90
25138;DHT22;13112;50.986;4.354;2022-08-23T00:04:17;20.00;99.90
25138;DHT22;13112;50.986;4.354;2022-08-23T00:06:47;20.10;99.90
25138;DHT22;13112;50.986;4.354;2022-08-23T00:09:13;20.10;99.90
25138;DHT22;13112;50.986;4.354;2022-08-23T00:11:41;20.10;99.90
25138;DHT22;13112;50.986;4.354;2022-08-23T00:14:14;20.10;99.90
25138;DHT22;13112;50.986;4.354;2022-08-23T00:16:41;20.20;99.90
25138;DHT22;13112;50.986;4.354;2022-08-23T00:19:09;20.20;99.90
25138;DHT22;13112;50.986;4.354;2022-08-23T00:21:36;20.40;99.90
25138;DHT22;13112;50.986;4.354;2022-08-23T00:24:04;20.20;99.90
25138;DHT22;13112;50.986;4.354;2022-08-23T00:29:14;19.90;99.90
25138;DHT22;13112;50.986;4.354;2022-08-23T00:31:40;19.70;99.90
25138;DHT22;13112;50.986;4.354;2022-08-23T00:34:05;19.60;99.90
25138;DHT22;13112;50.986;4.354;2022-08-23T00:36:31;19.30;99.90
25138;DHT22;13112;50.986;4.354;2022-08-23T00:38:57;19.10;99.90
25138;DHT22;13112;50.986;4.354;2022-08-23T00:41:22;19.00;99.90
25138;DHT22;13112;50.986;4.354;2022-08-23T00:43:48;19.20;99.90
25138;DHT22;13112;50.986;4.354;2022-08-23T00:49:17;18.90;99.90
25138;DHT22;13112;50.986;4.354;2022-08-23T00:54:30;19.00;99.90
25138;DHT22;13112;50.986;4.354;2022-08-23T00:56:58;19.10;99.90
25138;DHT22;13112;50.986;4.354;2022-08-23T00:59:25;19.20;99.90
25138;DHT22;13112;50.986;4.354;2022-08-23T01:01:51;19.10;99.90
25138;DHT22;13112;50.986;4.354;2022-08-23T01:04:18;19.20;99.90
25138;DHT22;13112;50.986;4.354;2022-08-23T01:07:00;19.40;99.90
25138;DHT22;13112;50.986;4.354;2022-08-23T01:09:26;19.50;99.90
25138;DHT22;13112;50.986;4.354;2022-08-23T01:12:19;19.60;99.90
25138;DHT22;13112;50.986;4.354;2022-08-23T01:15:05;19.60;99.90
25138;DHT22;13112;50.986;4.354;2022-08-23T01:17:47;19.70;99.90
25138;DHT22;13112;50.986;4.354;2022-08-23T01:20:17;19.60;99.90
25138;DHT22;13112;50.986;4.354;2022-08-23T01:25:21;19.60;99.90
25138;DHT22;13112;50.986;4.354;2022-08-23T01:27:48;19.60;99.90
25138;DHT22;13112;50.986;4.354;2022-08-23T01:30:18;19.70;99.90
25138;DHT22;13112;50.986;4.354;2022-08-23T01:32:54;19.70;99.90
25138;DHT22;13112;50.986;4.354;2022-08-23T01:35:28;19.70;99.90
25138;DHT22;13112;50.986;4.354;2022-08-23T01:37:55;19.80;99.90
25138;DHT22;13112;50.986;4.354;2022-08-23T01:40:21;19.90;99.90
25138;DHT22;13112;50.986;4.354;2022-08-23T01:42:47;19.80;99.90
25138;DHT22;13112;50.986;4.354;2022-08-23T01:45:14;19.80;99.90
25138;DHT22;13112;50.986;4.354;2022-08-23T01:47:41;19.80;99.90
25138;DHT22;13112;50.986;4.354;2022-08-23T01:50:08;19.80;99.90
25138;DHT22;13112;50.986;4.354;2022-08-23T01:52:35;19.80;99.90
25138;DHT22;13112;50.986;4.354;2022-08-23T01:55:02;19.70;99.90
25138;DHT22;13112;50.986;4.354;2022-08-23T01:57:29;19.40;99.90
25138;DHT22;13112;50.986;4.354;2022-08-23T01:59:56;19.30;99.90
25138;DHT22;13112;50.986;4.354;2022-08-23T02:02:22;19.30;99.90
25138;DHT22;13112;50.986;4.354;2022-08-23T02:04:48;19.30;99.90
25138;DHT22;13112;50.986;4.354;2022-08-23T02:07:14;19.40;99.90
25138;DHT22;13112;50.986;4.354;2022-08-23T02:09:40;19.50;99.90
25138;DHT22;13112;50.986;4.354;2022-08-23T02:12:06;19.40;99.90
25138;DHT22;13112;50.986;4.354;2022-08-23T02:14:31;19.40;99.90
25138;DHT22;13112;50.986;4.354;2022-08-23T02:16:57;19.40;99.90
25138;DHT22;13112;50.986;4.354;2022-08-23T02:19:23;19.30;99.90
25138;DHT22;13112;50.986;4.354;2022-08-23T02:21:50;19.30;99.90
25138;DHT22;13112;50.986;4.354;2022-08-23T02:24:18;19.00;99.90
25138;DHT22;13112;50.986;4.354;2022-08-23T02:26:47;18.80;99.90
25138;DHT22;13112;50.986;4.354;2022-08-23T02:29:15;18.50;99.90
25138;DHT22;13112;50.986;4.354;2022-08-23T02:31:41;18.60;99.90
25138;DHT22;13112;50.986;4.354;2022-08-23T02:34:09;18.60;99.90
25138;DHT22;13112;50.986;4.354;2022-08-23T02:36:36;18.60;99.90
25138;DHT22;13112;50.986;4.354;2022-08-23T02:39:04;18.60;99.90
25138;DHT22;13112;50.986;4.354;2022-08-23T02:41:29;18.50;99.90
25138;DHT22;13112;50.986;4.354;2022-08-23T02:43:56;18.60;99.90
25138;DHT22;13112;50.986;4.354;2022-08-23T02:46:21;18.60;99.90
25138;DHT22;13112;50.986;4.354;2022-08-23T02:48:47;18.60;99.90
25138;DHT22;13112;50.986;4.354;2022-08-23T02:51:14;18.50;99.90
25138;DHT22;13112;50.986;4.354;2022-08-23T02:53:41;18.40;99.90
25138;DHT22;13112;50.986;4.354;2022-08-23T02:56:07;18.40;99.90
25138;DHT22;13112;50.986;4.354;2022-08-23T02:58:33;18.20;99.90
25138;DHT22;13112;50.986;4.354;2022-08-23T03:00:58;18.10;99.90
25138;DHT22;13112;50.986;4.354;2022-08-23T03:03:25;18.30;99.90
25138;DHT22;13112;50.986;4.354;2022-08-23T03:05:51;18.40;99.90
25138;DHT22;13112;50.986;4.354;2022-08-23T03:08:17;18.50;99.90
25138;DHT22;13112;50.986;4.354;2022-08-23T03:10:44;18.50;99.90
25138;DHT22;13112;50.986;4.354;2022-08-23T03:13:11;18.50;99.90
25138;DHT22;13112;50.986;4.354;2022-08-23T03:15:38;18.50;99.90
25138;DHT22;13112;50.986;4.354;2022-08-23T03:18:04;18.60;99.90
25138;DHT22;13112;50.986;4.354;2022-08-23T03:20:30;18.70;99.90
25138;DHT22;13112;50.986;4.354;2022-08-23T03:22:55;18.70;99.90
25138;DHT22;13112;50.986;4.354;2022-08-23T03:25:21;18.60;99.90
25138;DHT22;13112;50.986;4.354;2022-08-23T03:27:47;18.50;99.90
25138;DHT22;13112;50.986;4.354;2022-08-23T03:30:13;18.50;99.90
25138;DHT22;13112;50.986;4.354;2022-08-23T03:32:39;18.40;99.90
25138;DHT22;13112;50.986;4.354;2022-08-23T03:35:06;18.30;99.90
25138;DHT22;13112;50.986;4.354;2022-08-23T03:37:32;18.20;99.90
25138;DHT22;13112;50.986;4.354;2022-08-23T03:39:57;18.20;99.90
25138;DHT22;13112;50.986;4.354;2022-08-23T03:42:23;18.20;99.90
25138;DHT22;13112;50.986;4.354;2022-08-23T03:44:49;18.20;99.90
25138;DHT22;13112;50.986;4.354;2022-08-23T03:47:15;18.00;99.90
25138;DHT22;13112;50.986;4.354;2022-08-23T03:49:41;18.00;99.90
25138;DHT22;13112;50.986;4.354;2022-08-23T03:52:07;18.00;99.90
25138;DHT22;13112;50.986;4.354;2022-08-23T03:54:33;18.10;99.90
25138;DHT22;13112;50.986;4.354;2022-08-23T03:57:04;18.20;99.90
25138;DHT22;13112;50.986;4.354;2022-08-23T03:59:31;18.20;99.90
25138;DHT22;13112;50.986;4.354;2022-08-23T04:01:57;18.20;99.90
25138;DHT22;13112;50.986;4.354;2022-08-23T04:04:23;18.20;99.90
25138;DHT22;13112;50.986;4.354;2022-08-23T04:06:49;18.20;99.90
25138;DHT22;13112;50.986;4.354;2022-08-23T04:09:15;18.30;99.90
25138;DHT22;13112;50.986;4.354;2022-08-23T04:11:42;18.30;99.90
25138;DHT22;13112;50.986;4.354;2022-08-23T04:14:08;18.20;99.90
25138;DHT22;13112;50.986;4.354;2022-08-23T04:16:34;18.20;99.90
25138;DHT22;13112;50.986;4.354;2022-08-23T04:19:10;18.20;99.90
25138;DHT22;13112;50.986;4.354;2022-08-23T04:21:41;18.20;99.90
25138;DHT22;13112;50.986;4.354;2022-08-23T04:24:07;18.10;99.90
25138;DHT22;13112;50.986;4.354;2022-08-23T04:26:33;18.10;99.90
25138;DHT22;13112;50.986;4.354;2022-08-23T04:28:59;18.10;99.90
25138;DHT22;13112;50.986;4.354;2022-08-23T04:31:25;18.00;99.90
25138;DHT22;13112;50.986;4.354;2022-08-23T04:33:54;18.00;99.90
25138;DHT22;13112;50.986;4.354;2022-08-23T04:36:23;18.10;99.90
25138;DHT22;13112;50.986;4.354;2022-08-23T04:38:49;18.10;99.90
25138;DHT22;13112;50.986;4.354;2022-08-23T04:41:15;18.00;99.90
25138;DHT22;13112;50.986;4.354;2022-08-23T04:44:00;18.00;99.90
25138;DHT22;13112;50.986;4.354;2022-08-23T04:46:26;18.10;99.90
25138;DHT22;13112;50.986;4.354;2022-08-23T04:48:52;18.10;99.90
25138;DHT22;13112;50.986;4.354;2022-08-23T04:51:20;18.10;99.90
25138;DHT22;13112;50.986;4.354;2022-08-23T04:53:46;18.10;99.90
25138;DHT22;13112;50.986;4.354;2022-08-23T04:56:12;18.10;99.90
25138;DHT22;13112;50.986;4.354;2022-08-23T04:58:38;18.00;99.90
25138;DHT22;13112;50.986;4.354;2022-08-23T05:01:06;18.00;99.90
25138;DHT22;13112;50.986;4.354;2022-08-23T05:03:32;17.90;99.90
25138;DHT22;13112;50.986;4.354;2022-08-23T05:05:59;17.80;99.90
25138;DHT22;13112;50.986;4.354;2022-08-23T05:08:25;17.90;99.90
25138;DHT22;13112;50.986;4.354;2022-08-23T05:10:51;17.80;99.90
25138;DHT22;13112;50.986;4.354;2022-08-23T05:13:17;17.90;99.90
25138;DHT22;13112;50.986;4.354;2022-08-23T05:15:43;18.00;99.90
25138;DHT22;13112;50.986;4.354;2022-08-23T05:18:09;18.20;99.90
25138;DHT22;13112;50.986;4.354;2022-08-23T05:20:35;18.30;99.90
25138;DHT22;13112;50.986;4.354;2022-08-23T05:23:01;18.30;99.90
25138;DHT22;13112;50.986;4.354;2022-08-23T05:25:28;18.20;99.90
25138;DHT22;13112;50.986;4.354;2022-08-23T05:28:14;18.20;99.90
25138;DHT22;13112;50.986;4.354;2022-08-23T05:30:40;18.30;99.90
25138;DHT22;13112;50.986;4.354;2022-08-23T05:33:06;18.50;99.90
25138;DHT22;13112;50.986;4.354;2022-08-23T05:35:32;18.60;99.90
25138;DHT22;13112;50.986;4.354;2022-08-23T05:37:58;18.60;99.90
25138;DHT22;13112;50.986;4.354;2022-08-23T05:40:25;18.60;99.90
25138;DHT22;13112;50.986;4.354;2022-08-23T05:42:51;18.70;99.90
25138;DHT22;13112;50.986;4.354;2022-08-23T05:45:17;18.60;99.90
25138;DHT22;13112;50.986;4.354;2022-08-23T05:47:43;18.60;99.90
25138;DHT22;13112;50.986;4.354;2022-08-23T05:50:09;18.80;99.90
25138;DHT22;13112;50.986;4.354;2022-08-23T05:52:34;18.90;99.90
25138;DHT22;13112;50.986;4.354;2022-08-23T05:55:00;19.00;99.90
25138;DHT22;13112;50.986;4.354;2022-08-23T05:57:27;19.20;99.90
25138;DHT22;13112;50.986;4.354;2022-08-23T05:59:52;19.30;99.90
25138;DHT22;13112;50.986;4.354;2022-08-23T06:02:18;19.40;99.90
25138;DHT22;13112;50.986;4.354;2022-08-23T06:04:44;19.60;99.90
25138;DHT22;13112;50.986;4.354;2022-08-23T06:07:09;19.60;99.90
25138;DHT22;13112;50.986;4.354;2022-08-23T06:09:36;19.50;99.90
25138;DHT22;13112;50.986;4.354;2022-08-23T06:12:02;19.60;99.90
25138;DHT22;13112;50.986;4.354;2022-08-23T06:14:28;19.80;99.90
25138;DHT22;13112;50.986;4.354;2022-08-23T06:16:54;19.90;99.90
25138;DHT22;13112;50.986;4.354;2022-08-23T06:19:20;19.90;99.90
25138;DHT22;13112;50.986;4.354;2022-08-23T06:21:46;19.90;99.90
25138;DHT22;13112;50.986;4.354;2022-08-23T06:24:12;20.10;99.90
25138;DHT22;13112;50.986;4.354;2022-08-23T06:26:41;20.60;99.90
25138;DHT22;13112;50.986;4.354;2022-08-23T06:29:10;20.60;99.90
25138;DHT22;13112;50.986;4.354;2022-08-23T06:31:43;20.60;99.90
25138;DHT22;13112;50.986;4.354;2022-08-23T06:34:21;20.90;99.90
25138;DHT22;13112;50.986;4.354;2022-08-23T06:36:52;21.20;99.90
25138;DHT22;13112;50.986;4.354;2022-08-23T06:39:20;21.50;99.90
25138;DHT22;13112;50.986;4.354;2022-08-23T06:41:46;21.60;99.90
25138;DHT22;13112;50.986;4.354;2022-08-23T06:44:14;21.40;99.90
25138;DHT22;13112;50.986;4.354;2022-08-23T06:46:39;21.50;99.90
25138;DHT22;13112;50.986;4.354;2022-08-23T06:49:06;21.80;99.90
25138;DHT22;13112;50.986;4.354;2022-08-23T06:51:39;22.10;99.90
25138;DHT22;13112;50.986;4.354;2022-08-23T06:54:08;22.30;99.90
25138;DHT22;13112;50.986;4.354;2022-08-23T06:56:36;22.60;99.90
25138;DHT22;13112;50.986;4.354;2022-08-23T06:59:02;22.70;99.90
25138;DHT22;13112;50.986;4.354;2022-08-23T07:04:05;23.00;99.90
25138;DHT22;13112;50.986;4.354;2022-08-23T07:06:40;23.20;99.90
25138;DHT22;13112;50.986;4.354;2022-08-23T07:09:09;23.30;99.90
25138;DHT22;13112;50.986;4.354;2022-08-23T07:11:35;23.60;99.90
25138;DHT22;13112;50.986;4.354;2022-08-23T07:14:04;23.90;99.90
25138;DHT22;13112;50.986;4.354;2022-08-23T07:16:54;24.80;99.90
25138;DHT22;13112;50.986;4.354;2022-08-23T07:19:23;26.20;99.90
25138;DHT22;13112;50.986;4.354;2022-08-23T07:21:49;27.20;99.90
25138;DHT22;13112;50.986;4.354;2022-08-23T07:24:16;28.60;99.90
25138;DHT22;13112;50.986;4.354;2022-08-23T07:26:45;29.90;99.90
25138;DHT22;13112;50.986;4.354;2022-08-23T07:29:13;30.90;99.90
25138;DHT22;13112;50.986;4.354;2022-08-23T07:31:43;32.00;99.90
25138;DHT22;13112;50.986;4.354;2022-08-23T07:34:09;32.90;99.90
25138;DHT22;13112;50.986;4.354;2022-08-23T07:36:36;33.10;99.90
25138;DHT22;13112;50.986;4.354;2022-08-23T07:39:05;33.70;99.90
25138;DHT22;13112;50.986;4.354;2022-08-23T07:41:32;33.60;98.50
25138;DHT22;13112;50.986;4.354;2022-08-23T07:44:00;33.80;98.20
25138;DHT22;13112;50.986;4.354;2022-08-23T07:46:29;34.10;97.10
25138;DHT22;13112;50.986;4.354;2022-08-23T07:49:00;34.30;96.10
25138;DHT22;13112;50.986;4.354;2022-08-23T07:51:34;34.10;95.70
25138;DHT22;13112;50.986;4.354;2022-08-23T07:54:03;34.70;95.30
25138;DHT22;13112;50.986;4.354;2022-08-23T07:56:30;34.90;94.30
25138;DHT22;13112;50.986;4.354;2022-08-23T07:59:05;35.80;93.30
25138;DHT22;13112;50.986;4.354;2022-08-23T08:01:31;36.90;93.10
25138;DHT22;13112;50.986;4.354;2022-08-23T08:04:14;36.40;92.30
25138;DHT22;13112;50.986;4.354;2022-08-23T08:06:45;34.10;91.90
25138;DHT22;13112;50.986;4.354;2022-08-23T08:09:13;34.40;93.10
25138;DHT22;13112;50.986;4.354;2022-08-23T08:11:42;34.50;92.20
25138;DHT22;13112;50.986;4.354;2022-08-23T08:14:08;35.90;91.40
25138;DHT22;13112;50.986;4.354;2022-08-23T08:16:38;34.40;91.10
25138;DHT22;13112;50.986;4.354;2022-08-23T08:19:06;35.00;91.60
25138;DHT22;13112;50.986;4.354;2022-08-23T08:21:32;34.10;91.40
25138;DHT22;13112;50.986;4.354;2022-08-23T08:23:59;35.00;91.90
25138;DHT22;13112;50.986;4.354;2022-08-23T08:26:25;34.90;90.80
25138;DHT22;13112;50.986;4.354;2022-08-23T08:28:53;33.40;91.50
25138;DHT22;13112;50.986;4.354;2022-08-23T08:31:21;32.00;93.60
25138;DHT22;13112;50.986;4.354;2022-08-23T08:33:47;33.40;92.90
25138;DHT22;13112;50.986;4.354;2022-08-23T08:36:29;33.80;91.20
25138;DHT22;13112;50.986;4.354;2022-08-23T08:38:55;34.80;90.80
25138;DHT22;13112;50.986;4.354;2022-08-23T08:44:23;37.50;86.60
25138;DHT22;13112;50.986;4.354;2022-08-23T08:46:53;36.10;87.10
25138;DHT22;13112;50.986;4.354;2022-08-23T08:50:08;36.10;88.50
25138;DHT22;13112;50.986;4.354;2022-08-23T08:52:28;36.90;87.30
25138;DHT22;13112;50.986;4.354;2022-08-23T08:55:04;37.90;84.00
25138;DHT22;13112;50.986;4.354;2022-08-23T08:57:38;38.50;82.20
25138;DHT22;13112;50.986;4.354;2022-08-23T09:02:34;37.50;85.30
25138;DHT22;13112;50.986;4.354;2022-08-23T09:05:02;38.50;82.10
25138;DHT22;13112;50.986;4.354;2022-08-23T09:13:16;36.50;82.80
25138;DHT22;13112;50.986;4.354;2022-08-23T09:15:49;35.80;84.70
25138;DHT22;13112;50.986;4.354;2022-08-23T09:18:17;34.50;87.10
25138;DHT22;13112;50.986;4.354;2022-08-23T09:20:46;35.50;87.50
25138;DHT22;13112;50.986;4.354;2022-08-23T09:23:25;36.20;84.60
25138;DHT22;13112;50.986;4.354;2022-08-23T09:25:53;35.40;85.40
25138;DHT22;13112;50.986;4.354;2022-08-23T09:28:19;34.00;88.30
25138;DHT22;13112;50.986;4.354;2022-08-23T09:30:55;33.00;90.40
25138;DHT22;13112;50.986;4.354;2022-08-23T09:33:25;32.30;91.70
25138;DHT22;13112;50.986;4.354;2022-08-23T09:36:12;31.70;92.10
25138;DHT22;13112;50.986;4.354;2022-08-23T09:38:53;33.20;91.20
25138;DHT22;13112;50.986;4.354;2022-08-23T09:41:23;34.60;90.20
25138;DHT22;13112;50.986;4.354;2022-08-23T09:43:49;35.30;87.50
25138;DHT22;13112;50.986;4.354;2022-08-23T09:46:28;35.10;87.60
25138;DHT22;13112;50.986;4.354;2022-08-23T09:48:55;34.40;88.60
25138;DHT22;13112;50.986;4.354;2022-08-23T09:51:36;34.50;88.50
25138;DHT22;13112;50.986;4.354;2022-08-23T09:54:25;35.00;87.60
25138;DHT22;13112;50.986;4.354;2022-08-23T09:56:59;34.50;88.40
25138;DHT22;13112;50.986;4.354;2022-08-23T10:01:53;36.20;85.20
25138;DHT22;13112;50.986;4.354;2022-08-23T10:04:39;36.30;84.70
25138;DHT22;13112;50.986;4.354;2022-08-23T10:07:38;33.80;88.60
25138;DHT22;13112;50.986;4.354;2022-08-23T10:12:58;31.70;91.30
25138;DHT22;13112;50.986;4.354;2022-08-23T10:15:57;31.40;92.50
25138;DHT22;13112;50.986;4.354;2022-08-23T10:21:45;35.20;90.10
25138;DHT22;13112;50.986;4.354;2022-08-23T10:27:04;34.80;90.10
25138;DHT22;13112;50.986;4.354;2022-08-23T10:30:09;36.90;86.20
25138;DHT22;13112;50.986;4.354;2022-08-23T10:37:45;35.50;86.90
25138;DHT22;13112;50.986;4.354;2022-08-23T10:40:31;34.00;88.10
25138;DHT22;13112;50.986;4.354;2022-08-23T10:43:03;34.20;89.60
25138;DHT22;13112;50.986;4.354;2022-08-23T10:45:35;33.90;89.20
25138;DHT22;13112;50.986;4.354;2022-08-23T10:48:25;34.00;89.60
25138;DHT22;13112;50.986;4.354;2022-08-23T10:51:10;34.20;89.90
25138;DHT22;13112;50.986;4.354;2022-08-23T10:56:10;35.40;86.50
25138;DHT22;13112;50.986;4.354;2022-08-23T10:58:49;35.50;85.90
25138;DHT22;13112;50.986;4.354;2022-08-23T11:04:23;33.30;90.10
25138;DHT22;13112;50.986;4.354;2022-08-23T11:06:55;34.40;89.60
25138;DHT22;13112;50.986;4.354;2022-08-23T11:14:41;37.40;83.10
25138;DHT22;13112;50.986;4.354;2022-08-23T11:17:22;38.90;80.40
25138;DHT22;13112;50.986;4.354;2022-08-23T11:19:58;38.60;78.60
25138;DHT22;13112;50.986;4.354;2022-08-23T11:22:30;34.90;85.60
25138;DHT22;13112;50.986;4.354;2022-08-23T11:25:46;36.60;83.50
25138;DHT22;13112;50.986;4.354;2022-08-23T11:27:47;37.60;82.40
25138;DHT22;13112;50.986;4.354;2022-08-23T11:33:48;35.90;83.20
25138;DHT22;13112;50.986;4.354;2022-08-23T11:44:34;38.60;80.60
25138;DHT22;13112;50.986;4.354;2022-08-23T11:47:05;38.20;77.40
25138;DHT22;13112;50.986;4.354;2022-08-23T11:50:18;37.50;80.60
25138;DHT22;13112;50.986;4.354;2022-08-23T11:53:14;37.00;79.50
25138;DHT22;13112;50.986;4.354;2022-08-23T12:01:36;36.60;82.30
25138;DHT22;13112;50.986;4.354;2022-08-23T12:04:09;37.40;79.90
25138;DHT22;13112;50.986;4.354;2022-08-23T12:06:50;38.30;78.90
25138;DHT22;13112;50.986;4.354;2022-08-23T12:19:47;38.30;75.90
25138;DHT22;13112;50.986;4.354;2022-08-23T12:22:22;37.40;76.10
25138;DHT22;13112;50.986;4.354;2022-08-23T12:24:59;37.20;77.60
25138;DHT22;13112;50.986;4.354;2022-08-23T12:32:55;37.40;75.80
25138;DHT22;13112;50.986;4.354;2022-08-23T12:38:05;35.10;81.20
25138;DHT22;13112;50.986;4.354;2022-08-23T12:40:46;35.10;82.40
25138;DHT22;13112;50.986;4.354;2022-08-23T12:45:40;36.50;80.70
25138;DHT22;13112;50.986;4.354;2022-08-23T12:48:09;37.60;77.60
25138;DHT22;13112;50.986;4.354;2022-08-23T12:50:39;38.50;75.90
25138;DHT22;13112;50.986;4.354;2022-08-23T12:53:12;38.00;76.60
25138;DHT22;13112;50.986;4.354;2022-08-23T12:55:45;37.40;78.10
25138;DHT22;13112;50.986;4.354;2022-08-23T12:58:14;38.10;77.50
25138;DHT22;13112;50.986;4.354;2022-08-23T13:00:51;39.40;73.80
25138;DHT22;13112;50.986;4.354;2022-08-23T13:03:22;41.30;72.10
25138;DHT22;13112;50.986;4.354;2022-08-23T13:05:58;41.00;68.70
25138;DHT22;13112;50.986;4.354;2022-08-23T13:08:48;40.10;68.70
25138;DHT22;13112;50.986;4.354;2022-08-23T13:11:18;39.90;69.30
25138;DHT22;13112;50.986;4.354;2022-08-23T13:13:44;36.40;73.80
25138;DHT22;13112;50.986;4.354;2022-08-23T13:16:39;34.40;78.30
25138;DHT22;13112;50.986;4.354;2022-08-23T13:19:26;34.30;79.50
25138;DHT22;13112;50.986;4.354;2022-08-23T13:24:40;36.80;77.40
25138;DHT22;13112;50.986;4.354;2022-08-23T13:27:14;38.10;74.80
25138;DHT22;13112;50.986;4.354;2022-08-23T13:29:48;38.70;73.00
25138;DHT22;13112;50.986;4.354;2022-08-23T13:32:33;39.00;71.80
25138;DHT22;13112;50.986;4.354;2022-08-23T13:35:32;38.00;73.30
25138;DHT22;13112;50.986;4.354;2022-08-23T13:40:54;34.90;77.30
25138;DHT22;13112;50.986;4.354;2022-08-23T13:43:31;35.70;77.50
25138;DHT22;13112;50.986;4.354;2022-08-23T13:46:00;36.90;74.30
25138;DHT22;13112;50.986;4.354;2022-08-23T13:48:34;37.50;73.20
25138;DHT22;13112;50.986;4.354;2022-08-23T13:53:42;39.10;69.60
25138;DHT22;13112;50.986;4.354;2022-08-23T13:56:08;39.70;68.90
25138;DHT22;13112;50.986;4.354;2022-08-23T13:58:34;40.20;69.10
25138;DHT22;13112;50.986;4.354;2022-08-23T14:01:01;39.20;68.00
25138;DHT22;13112;50.986;4.354;2022-08-23T14:03:29;38.70;70.80
25138;DHT22;13112;50.986;4.354;2022-08-23T14:05:56;39.30;70.50
25138;DHT22;13112;50.986;4.354;2022-08-23T14:08:22;39.60;71.00
25138;DHT22;13112;50.986;4.354;2022-08-23T14:10:48;40.30;68.60
25138;DHT22;13112;50.986;4.354;2022-08-23T14:13:15;40.70;67.20
25138;DHT22;13112;50.986;4.354;2022-08-23T14:15:43;40.00;67.70
25138;DHT22;13112;50.986;4.354;2022-08-23T14:18:10;40.10;67.70
25138;DHT22;13112;50.986;4.354;2022-08-23T14:20:36;40.10;66.90
25138;DHT22;13112;50.986;4.354;2022-08-23T14:23:02;40.60;66.10
25138;DHT22;13112;50.986;4.354;2022-08-23T14:25:28;41.30;66.40
25138;DHT22;13112;50.986;4.354;2022-08-23T14:27:54;41.40;64.30
25138;DHT22;13112;50.986;4.354;2022-08-23T14:30:29;40.80;65.90
25138;DHT22;13112;50.986;4.354;2022-08-23T14:32:56;38.90;69.50
25138;DHT22;13112;50.986;4.354;2022-08-23T14:35:22;37.30;69.40
25138;DHT22;13112;50.986;4.354;2022-08-23T14:37:48;35.90;73.20
25138;DHT22;13112;50.986;4.354;2022-08-23T14:40:14;35.10;73.00
25138;DHT22;13112;50.986;4.354;2022-08-23T14:42:41;34.50;73.80
25138;DHT22;13112;50.986;4.354;2022-08-23T14:45:07;34.00;76.00
25138;DHT22;13112;50.986;4.354;2022-08-23T14:47:33;34.00;76.10
25138;DHT22;13112;50.986;4.354;2022-08-23T14:50:00;33.10;77.90
25138;DHT22;13112;50.986;4.354;2022-08-23T14:52:26;33.30;80.60
25138;DHT22;13112;50.986;4.354;2022-08-23T14:54:52;33.00;78.00
25138;DHT22;13112;50.986;4.354;2022-08-23T14:57:18;33.00;79.30
25138;DHT22;13112;50.986;4.354;2022-08-23T14:59:43;32.40;78.90
25138;DHT22;13112;50.986;4.354;2022-08-23T15:02:11;32.00;80.90
25138;DHT22;13112;50.986;4.354;2022-08-23T15:04:38;32.10;81.00
25138;DHT22;13112;50.986;4.354;2022-08-23T15:07:04;32.50;82.20
25138;DHT22;13112;50.986;4.354;2022-08-23T15:09:30;32.70;81.60
25138;DHT22;13112;50.986;4.354;2022-08-23T15:11:56;32.80;79.70
25138;DHT22;13112;50.986;4.354;2022-08-23T15:14:22;32.50;80.40
25138;DHT22;13112;50.986;4.354;2022-08-23T15:16:48;32.30;80.20
25138;DHT22;13112;50.986;4.354;2022-08-23T15:19:13;32.30;81.50
25138;DHT22;13112;50.986;4.354;2022-08-23T15:21:39;32.50;81.60
25138;DHT22;13112;50.986;4.354;2022-08-23T15:24:05;32.50;82.30
25138;DHT22;13112;50.986;4.354;2022-08-23T15:26:31;32.60;82.50
25138;DHT22;13112;50.986;4.354;2022-08-23T15:28:58;32.60;81.50
25138;DHT22;13112;50.986;4.354;2022-08-23T15:31:24;32.60;81.20
25138;DHT22;13112;50.986;4.354;2022-08-23T15:33:50;32.50;81.70
25138;DHT22;13112;50.986;4.354;2022-08-23T15:36:16;32.40;82.30
25138;DHT22;13112;50.986;4.354;2022-08-23T15:38:42;32.30;81.00
25138;DHT22;13112;50.986;4.354;2022-08-23T15:41:08;32.20;81.00
25138;DHT22;13112;50.986;4.354;2022-08-23T15:43:34;32.00;80.80
25138;DHT22;13112;50.986;4.354;2022-08-23T15:46:09;31.50;82.40
25138;DHT22;13112;50.986;4.354;2022-08-23T15:48:41;31.40;84.10
25138;DHT22;13112;50.986;4.354;2022-08-23T15:51:08;31.50;83.40
25138;DHT22;13112;50.986;4.354;2022-08-23T15:53:37;31.50;83.60
25138;DHT22;13112;50.986;4.354;2022-08-23T15:56:08;31.50;83.00
25138;DHT22;13112;50.986;4.354;2022-08-23T15:58:36;31.40;83.90
25138;DHT22;13112;50.986;4.354;2022-08-23T16:01:03;31.10;83.20
25138;DHT22;13112;50.986;4.354;2022-08-23T16:03:29;31.10;84.60
25138;DHT22;13112;50.986;4.354;2022-08-23T16:05:55;31.00;85.30
25138;DHT22;13112;50.986;4.354;2022-08-23T16:08:30;31.10;85.40
25138;DHT22;13112;50.986;4.354;2022-08-23T16:10:57;31.20;85.90
25138;DHT22;13112;50.986;4.354;2022-08-23T16:13:25;31.10;84.80
25138;DHT22;13112;50.986;4.354;2022-08-23T16:15:51;31.10;85.20
25138;DHT22;13112;50.986;4.354;2022-08-23T16:18:18;31.20;84.00
25138;DHT22;13112;50.986;4.354;2022-08-23T16:20:44;31.10;85.10
25138;DHT22;13112;50.986;4.354;2022-08-23T16:23:10;31.00;85.70
25138;DHT22;13112;50.986;4.354;2022-08-23T16:25:36;31.10;86.00
25138;DHT22;13112;50.986;4.354;2022-08-23T16:28:03;31.30;86.40
25138;DHT22;13112;50.986;4.354;2022-08-23T16:30:28;31.30;86.40
25138;DHT22;13112;50.986;4.354;2022-08-23T16:32:55;31.20;86.70
25138;DHT22;13112;50.986;4.354;2022-08-23T16:35:22;31.30;87.30
25138;DHT22;13112;50.986;4.354;2022-08-23T16:37:48;31.20;86.60
25138;DHT22;13112;50.986;4.354;2022-08-23T16:40:14;31.10;86.80
25138;DHT22;13112;50.986;4.354;2022-08-23T16:42:40;31.00;86.30
25138;DHT22;13112;50.986;4.354;2022-08-23T16:45:06;31.00;87.10
25138;DHT22;13112;50.986;4.354;2022-08-23T16:47:36;30.90;87.30
25138;DHT22;13112;50.986;4.354;2022-08-23T16:50:03;31.00;87.40
25138;DHT22;13112;50.986;4.354;2022-08-23T16:52:29;30.80;88.30
25138;DHT22;13112;50.986;4.354;2022-08-23T16:54:55;30.80;87.30
25138;DHT22;13112;50.986;4.354;2022-08-23T16:57:21;30.80;86.60
25138;DHT22;13112;50.986;4.354;2022-08-23T16:59:47;30.80;87.50
25138;DHT22;13112;50.986;4.354;2022-08-23T17:02:32;30.70;88.50
25138;DHT22;13112;50.986;4.354;2022-08-23T17:04:58;30.50;88.50
25138;DHT22;13112;50.986;4.354;2022-08-23T17:07:24;30.20;89.50
25138;DHT22;13112;50.986;4.354;2022-08-23T17:09:50;30.00;90.00
25138;DHT22;13112;50.986;4.354;2022-08-23T17:12:16;29.90;89.90
25138;DHT22;13112;50.986;4.354;2022-08-23T17:14:43;29.90;89.90
25138;DHT22;13112;50.986;4.354;2022-08-23T17:17:13;30.00;90.00
25138;DHT22;13112;50.986;4.354;2022-08-23T17:19:39;30.00;89.60
25138;DHT22;13112;50.986;4.354;2022-08-23T17:22:05;30.00;90.20
25138;DHT22;13112;50.986;4.354;2022-08-23T17:24:31;30.00;90.00